Time,TemperatureF,DewpointF,PressureIn,WindDirection,WindDirectionDegrees,WindSpeedMPH,WindSpeedGustMPH,Humidity,HourlyPrecipIn,Conditions,Clouds,dailyrainin,SoftwareType,DateUTC
2013-07-27 00:04:00,67.2,65.0,30.09,SSW,203,0.0,0.0,93,-99.99,,,-99.99,WSDL version 430,2013-07-27 05:04:00,
2013-07-27 00:09:00,67.0,64.7,30.09,SSW,203,0.0,0.0,92,-99.99,,,-99.99,WSDL version 430,2013-07-27 05:09:00,
2013-07-27 00:14:00,66.8,64.4,30.09,SSW,203,0.0,0.0,92,-99.99,,,-99.99,WSDL version 430,2013-07-27 05:14:00,
2013-07-27 00:19:00,66.7,64.4,30.09,SSW,203,0.0,0.0,92,-99.99,,,-99.99,WSDL version 430,2013-07-27 05:19:00,
2013-07-27 00:24:00,66.6,64.6,30.12,SSW,203,0.0,0.0,93,-99.99,,,-99.99,WSDL version 430,2013-07-27 05:24:00,
2013-07-27 00:29:00,66.6,64.6,30.12,SSW,203,0.0,0.0,93,-99.99,,,-99.99,WSDL version 430,2013-07-27 05:29:00,
2013-07-27 00:34:00,66.5,64.5,30.12,SSW,203,0.0,0.0,93,-99.99,,,-99.99,WSDL version 430,2013-07-27 05:34:00,
2013-07-27 00:39:00,66.4,64.5,30.12,SSW,203,0.0,0.0,94,-99.99,,,-99.99,WSDL version 430,2013-07-27 05:39:00,
2013-07-27 00:44:00,66.4,64.7,30.12,WSW,242,0.0,0.0,94,-99.99,,,-99.99,WSDL version 430,2013-07-27 05:44:00,
2013-07-27 00:49:00,66.3,64.6,30.12,WSW,248,0.0,0.0,94,-99.99,,,-99.99,WSDL version 430,2013-07-27 05:49:00,
2013-07-27 00:54:00,67.3,66.3,30.09,WSW,248,0.0,0.0,97,-99.99,,,-99.99,WSDL version 430,2013-07-27 05:54:00,
2013-07-27 00:59:00,68.0,67.3,30.09,WSW,248,0.0,0.0,98,-99.99,,,-99.99,WSDL version 430,2013-07-27 05:59:00,
2013-07-27 01:04:00,67.6,66.2,30.09,WSW,248,0.0,0.0,96,-99.99,,,-99.99,WSDL version 430,2013-07-27 06:04:00,
2013-07-27 01:09:00,67.2,65.5,30.12,West,270,0.3,1.3,94,-99.99,,,-99.99,WSDL version 430,2013-07-27 06:09:00,
2013-07-27 01:14:00,67.0,65.3,30.12,SSE,158,0.0,1.3,94,-99.99,,,-99.99,WSDL version 430,2013-07-27 06:14:00,
2013-07-27 01:19:00,66.9,65.2,30.12,SSE,158,0.0,0.0,94,-99.99,,,-99.99,WSDL version 430,2013-07-27 06:19:00,
2013-07-27 01:24:00,66.7,65.1,30.12,SSE,158,0.0,0.0,94,-99.99,,,-99.99,WSDL version 430,2013-07-27 06:24:00,
2013-07-27 01:29:00,66.6,65.0,30.12,SSE,158,0.0,0.0,95,-99.99,,,-99.99,WSDL version 430,2013-07-27 06:29:00,
2013-07-27 01:34:00,66.6,65.3,30.12,SSE,158,0.0,0.0,96,-99.99,,,-99.99,WSDL version 430,2013-07-27 06:34:00,
2013-07-27 01:39:00,66.5,65.2,30.09,SSE,158,0.0,0.0,96,-99.99,,,-99.99,WSDL version 430,2013-07-27 06:39:00,
2013-07-27 01:44:00,66.4,65.1,30.09,SSE,158,0.0,0.0,96,-99.99,,,-99.99,WSDL version 430,2013-07-27 06:44:00,
2013-07-27 01:49:00,66.4,65.3,30.09,SSE,158,0.0,0.0,96,-99.99,,,-99.99,WSDL version 430,2013-07-27 06:49:00,
2013-07-27 01:54:00,66.4,65.4,30.09,South,180,0.5,1.6,97,-99.99,,,-99.99,WSDL version 430,2013-07-27 06:54:00,
2013-07-27 01:59:00,66.3,65.3,30.09,WSW,255,0.2,1.6,97,-99.99,,,-99.99,WSDL version 430,2013-07-27 06:59:00,
2013-07-27 02:04:00,66.2,65.2,30.09,West,270,0.0,1.6,97,-99.99,,,-99.99,WSDL version 430,2013-07-27 07:04:00,
2013-07-27 02:09:00,66.2,65.3,30.09,West,270,0.0,1.3,97,-99.99,,,-99.99,WSDL version 430,2013-07-27 07:09:00,
2013-07-27 02:14:00,66.2,65.6,30.09,WSW,248,0.6,2.0,98,-99.99,,,-99.99,WSDL version 430,2013-07-27 07:14:00,
2013-07-27 02:19:00,66.2,65.6,30.09,WSW,248,0.0,2.0,98,-99.99,,,-99.99,WSDL version 430,2013-07-27 07:19:00,
2013-07-27 02:24:00,66.2,65.6,30.09,WSW,248,0.0,0.9,98,-99.99,,,-99.99,WSDL version 430,2013-07-27 07:24:00,
2013-07-27 02:29:00,66.2,65.6,30.09,SW,225,0.0,0.0,98,-99.99,,,-99.99,WSDL version 430,2013-07-27 07:29:00,
2013-07-27 02:34:00,66.2,65.9,30.09,SSW,203,0.0,0.0,99,-99.99,,,-99.99,WSDL version 430,2013-07-27 07:34:00,
2013-07-27 02:39:00,66.4,66.1,30.09,South,180,0.0,0.0,99,-99.99,,,-99.99,WSDL version 430,2013-07-27 07:39:00,
2013-07-27 02:44:00,66.4,66.1,30.09,South,180,0.0,0.0,99,-99.99,,,-99.99,WSDL version 430,2013-07-27 07:44:00,
2013-07-27 02:49:00,66.4,66.1,30.09,South,180,0.0,0.0,99,-99.99,,,-99.99,WSDL version 430,2013-07-27 07:49:00,
2013-07-27 02:54:00,66.4,66.1,30.09,South,180,0.0,0.0,99,-99.99,,,-99.99,WSDL version 430,2013-07-27 07:54:00,
2013-07-27 02:59:00,66.6,66.2,30.09,South,180,0.0,0.0,99,-99.99,,,-99.99,WSDL version 430,2013-07-27 07:59:00,
2013-07-27 03:04:00,66.6,66.3,30.09,South,180,0.0,0.0,99,-99.99,,,-99.99,WSDL version 430,2013-07-27 08:04:00,
2013-07-27 03:09:00,66.6,66.5,30.09,WSW,243,0.0,1.3,100,-99.99,,,-99.99,WSDL version 430,2013-07-27 08:09:00,
2013-07-27 03:14:00,66.6,66.6,30.09,NNW,338,0.0,1.3,100,-99.99,,,-99.99,WSDL version 430,2013-07-27 08:14:00,
2013-07-27 03:19:00,66.6,66.6,30.09,WSW,248,0.1,1.3,100,-99.99,,,-99.99,WSDL version 430,2013-07-27 08:19:00,
2013-07-27 03:24:00,66.6,66.6,30.09,ENE,68,0.4,1.6,100,-99.99,,,-99.99,WSDL version 430,2013-07-27 08:24:00,
2013-07-27 03:29:00,66.7,66.7,30.09,ENE,68,0.0,1.6,100,-99.99,,,-99.99,WSDL version 430,2013-07-27 08:29:00,
2013-07-27 03:34:00,66.7,66.7,30.09,ENE,68,0.0,1.3,100,-99.99,,,-99.99,WSDL version 430,2013-07-27 08:34:00,
2013-07-27 03:39:00,66.7,66.7,30.09,ENE,68,0.0,1.3,100,-99.99,,,-99.99,WSDL version 430,2013-07-27 08:39:00,
2013-07-27 03:44:00,66.8,66.8,30.09,ENE,68,0.0,0.0,100,-99.99,,,-99.99,WSDL version 430,2013-07-27 08:44:00,
2013-07-27 03:49:00,66.9,66.9,30.09,WNW,293,0.3,2.9,100,-99.99,,,-99.99,WSDL version 430,2013-07-27 08:49:00,
2013-07-27 03:54:00,66.9,66.9,30.06,WSW,252,0.7,2.9,100,-99.99,,,-99.99,WSDL version 430,2013-07-27 08:54:00,
2013-07-27 03:59:00,66.9,66.9,30.06,NW,315,0.7,2.7,100,-99.99,,,-99.99,WSDL version 430,2013-07-27 08:59:00,
2013-07-27 04:04:00,67.1,67.1,30.06,NW,311,1.0,4.7,100,-99.99,,,-99.99,WSDL version 430,2013-07-27 09:04:00,
2013-07-27 04:09:00,67.1,67.1,30.09,NW,315,1.5,5.4,100,-99.99,,,-99.99,WSDL version 430,2013-07-27 09:09:00,
2013-07-27 04:14:00,67.4,67.4,30.09,NNW,335,3.2,6.3,100,-99.99,,,-99.99,WSDL version 430,2013-07-27 09:14:00,
2013-07-27 04:19:00,67.3,67.3,30.09,NW,313,1.9,6.3,100,-99.99,,,-99.99,WSDL version 430,2013-07-27 09:19:00,
2013-07-27 04:24:00,67.2,67.2,30.09,NW,306,3.2,4.5,100,-99.99,,,-99.99,WSDL version 430,2013-07-27 09:24:00,
2013-07-27 04:29:00,67.1,67.1,30.09,NNE,16,1.7,5.6,100,-99.99,,,-99.99,WSDL version 430,2013-07-27 09:29:00,
2013-07-27 04:34:00,67.1,67.1,30.09,North,2,2.5,5.6,100,-99.99,,,-99.99,WSDL version 430,2013-07-27 09:34:00,
2013-07-27 04:39:00,67.0,67.0,30.06,NW,311,2.0,6.5,100,-99.99,,,-99.99,WSDL version 430,2013-07-27 09:39:00,
2013-07-27 04:44:00,66.9,66.9,30.06,NW,311,2.6,6.5,100,-99.99,,,-99.99,WSDL version 430,2013-07-27 09:44:00,
2013-07-27 04:49:00,66.9,66.9,30.06,NE,40,2.8,4.3,100,-99.99,,,-99.99,WSDL version 430,2013-07-27 09:49:00,
2013-07-27 04:54:00,66.8,66.8,30.09,North,11,1.2,4.3,100,-99.99,,,-99.99,WSDL version 430,2013-07-27 09:54:00,
2013-07-27 04:59:00,66.7,66.7,30.09,NNW,343,1.2,4.3,100,-99.99,,,-99.99,WSDL version 430,2013-07-27 09:59:00,
2013-07-27 05:04:00,66.7,66.7,30.09,NW,324,0.7,3.4,100,-99.99,,,-99.99,WSDL version 430,2013-07-27 10:04:00,
2013-07-27 05:09:00,66.7,66.7,30.09,North,356,0.6,3.4,100,-99.99,,,-99.99,WSDL version 430,2013-07-27 10:09:00,
2013-07-27 05:14:00,66.7,66.7,30.09,NNW,338,0.0,2.0,100,-99.99,,,-99.99,WSDL version 430,2013-07-27 10:14:00,
2013-07-27 05:19:00,66.7,66.7,30.09,ENE,68,0.0,0.0,100,-99.99,,,-99.99,WSDL version 430,2013-07-27 10:19:00,
2013-07-27 05:24:00,66.7,66.7,30.09,ENE,68,0.0,0.0,100,-99.99,,,-99.99,WSDL version 430,2013-07-27 10:24:00,
2013-07-27 05:29:00,66.7,66.7,30.09,NNW,346,1.0,2.5,100,-99.99,,,-99.99,WSDL version 430,2013-07-27 10:29:00,
2013-07-27 05:34:00,66.7,66.7,30.09,NNW,331,0.0,3.4,100,-99.99,,,-99.99,WSDL version 430,2013-07-27 10:34:00,
2013-07-27 05:39:00,66.7,66.7,30.09,NNW,346,1.5,3.4,100,-99.99,,,-99.99,WSDL version 430,2013-07-27 10:39:00,
2013-07-27 05:44:00,66.6,66.6,30.09,ENE,68,0.4,2.9,100,-99.99,,,-99.99,WSDL version 430,2013-07-27 10:44:00,
2013-07-27 05:49:00,66.6,66.6,30.09,ENE,68,0.0,2.0,100,-99.99,,,-99.99,WSDL version 430,2013-07-27 10:49:00,
2013-07-27 05:54:00,66.6,66.6,30.09,NNE,16,0.1,1.6,100,-99.99,,,-99.99,WSDL version 430,2013-07-27 10:54:00,
2013-07-27 05:59:00,66.6,66.6,30.09,NW,315,0.8,2.9,100,-99.99,,,-99.99,WSDL version 430,2013-07-27 10:59:00,
2013-07-27 06:04:00,66.4,66.4,30.09,North,8,1.6,3.1,100,-99.99,,,-99.99,WSDL version 430,2013-07-27 11:04:00,
2013-07-27 06:09:00,66.4,66.2,30.09,WNW,299,1.2,3.1,99,-99.99,,,-99.99,WSDL version 430,2013-07-27 11:09:00,
2013-07-27 06:14:00,66.3,66.0,30.09,NNW,338,2.1,3.1,99,-99.99,,,-99.99,WSDL version 430,2013-07-27 11:14:00,
2013-07-27 06:19:00,66.2,65.9,30.09,West,272,0.5,3.6,99,-99.99,,,-99.99,WSDL version 430,2013-07-27 11:19:00,
2013-07-27 06:24:00,66.2,65.9,30.09,NNE,32,1.2,3.8,99,-99.99,,,-99.99,WSDL version 430,2013-07-27 11:24:00,
2013-07-27 06:29:00,66.2,65.9,30.09,NE,45,1.0,3.8,99,-99.99,,,-99.99,WSDL version 430,2013-07-27 11:29:00,
2013-07-27 06:34:00,66.2,65.9,30.09,NE,41,0.0,2.9,99,-99.99,,,-99.99,WSDL version 430,2013-07-27 11:34:00,
2013-07-27 06:39:00,66.2,65.9,30.09,ENE,68,0.0,2.0,99,-99.99,,,-99.99,WSDL version 430,2013-07-27 11:39:00,
2013-07-27 06:44:00,66.2,65.9,30.09,ENE,68,0.0,1.3,99,-99.99,,,-99.99,WSDL version 430,2013-07-27 11:44:00,
2013-07-27 06:49:00,66.2,65.9,30.09,NNE,27,0.0,1.6,99,-99.99,,,-99.99,WSDL version 430,2013-07-27 11:49:00,
2013-07-27 06:54:00,66.2,65.9,30.09,North,352,1.4,3.1,99,-99.99,,,-99.99,WSDL version 430,2013-07-27 11:54:00,
2013-07-27 06:59:00,66.2,65.9,30.09,NW,315,0.0,3.1,99,-99.99,,,-99.99,WSDL version 430,2013-07-27 11:59:00,
2013-07-27 07:04:00,66.2,65.9,30.09,NE,41,1.8,2.9,99,-99.99,,,-99.99,WSDL version 430,2013-07-27 12:04:00,
2013-07-27 07:09:00,66.2,65.9,30.09,NW,315,0.0,2.9,99,-99.99,,,-99.99,WSDL version 430,2013-07-27 12:09:00,
2013-07-27 07:14:00,66.3,66.0,30.09,NW,315,0.0,0.0,99,-99.99,,,-99.99,WSDL version 430,2013-07-27 12:14:00,
2013-07-27 07:19:00,66.4,66.1,30.09,ENE,68,0.0,0.9,99,-99.99,,,-99.99,WSDL version 430,2013-07-27 12:19:00,
2013-07-27 07:24:00,66.4,66.1,30.09,North,349,1.1,2.9,99,-99.99,,,-99.99,WSDL version 430,2013-07-27 12:24:00,
2013-07-27 07:29:00,66.5,66.1,30.09,NNE,28,1.7,2.9,99,-99.99,,,-99.99,WSDL version 430,2013-07-27 12:29:00,
2013-07-27 07:34:00,67.0,66.8,30.09,North,360,1.1,3.1,100,-99.99,,,-99.99,WSDL version 430,2013-07-27 12:34:00,
2013-07-27 07:44:00,66.9,66.5,30.12,North,360,0.0,3.8,99,-99.99,,,-99.99,WSDL version 430,2013-07-27 12:44:00,
2013-07-27 07:49:00,66.9,66.3,30.12,NNE,33,0.7,3.6,98,-99.99,,,-99.99,WSDL version 430,2013-07-27 12:49:00,
2013-07-27 07:54:00,66.9,66.3,30.12,ENE,65,1.0,3.6,98,-99.99,,,-99.99,WSDL version 430,2013-07-27 12:54:00,
2013-07-27 07:59:00,66.9,66.2,30.12,ENE,62,2.3,4.3,97,-99.99,,,-99.99,WSDL version 430,2013-07-27 12:59:00,
2013-07-27 08:04:00,66.9,65.9,30.12,NNE,16,2.5,4.3,97,-99.99,,,-99.99,WSDL version 430,2013-07-27 13:04:00,
2013-07-27 08:09:00,66.9,65.8,30.12,ENE,65,1.0,4.3,96,-99.99,,,-99.99,WSDL version 430,2013-07-27 13:09:00,
2013-07-27 08:14:00,67.1,65.8,30.12,NE,34,3.0,5.8,96,-99.99,,,-99.99,WSDL version 430,2013-07-27 13:14:00,
2013-07-27 08:19:00,67.1,65.8,30.12,ENE,68,0.6,5.8,96,-99.99,,,-99.99,WSDL version 430,2013-07-27 13:19:00,
2013-07-27 08:24:00,67.1,65.5,30.09,SW,215,0.7,4.0,95,-99.99,,,-99.99,WSDL version 430,2013-07-27 13:24:00,
2013-07-27 08:29:00,66.9,65.0,30.09,NNE,14,2.9,4.0,94,-99.99,,,-99.99,WSDL version 430,2013-07-27 13:29:00,
2013-07-27 08:34:00,66.8,64.7,30.09,North,2,3.8,6.3,93,-99.99,,,-99.99,WSDL version 430,2013-07-27 13:34:00,
2013-07-27 08:39:00,66.7,64.1,30.12,NE,41,1.3,6.3,91,-99.99,,,-99.99,WSDL version 430,2013-07-27 13:39:00,
2013-07-27 08:44:00,66.9,64.1,30.12,NNE,26,0.5,5.6,91,-99.99,,,-99.99,WSDL version 430,2013-07-27 13:44:00,
2013-07-27 08:49:00,66.9,63.9,30.12,North,11,3.1,4.3,90,-99.99,,,-99.99,WSDL version 430,2013-07-27 13:49:00,
2013-07-27 08:54:00,67.0,63.0,30.12,NNE,23,3.7,6.7,87,-99.99,,,-99.99,WSDL version 430,2013-07-27 13:54:00,
2013-07-27 08:59:00,67.3,62.7,30.12,North,360,1.6,6.7,85,-99.99,,,-99.99,WSDL version 430,2013-07-27 13:59:00,
2013-07-27 09:04:00,67.3,62.1,30.12,NNE,25,3.1,4.3,84,-99.99,,,-99.99,WSDL version 430,2013-07-27 14:04:00,
2013-07-27 09:09:00,67.3,61.8,30.12,NE,41,2.5,5.8,82,-99.99,,,-99.99,WSDL version 430,2013-07-27 14:09:00,
2013-07-27 09:14:00,67.5,61.7,30.12,NE,34,2.2,5.8,82,-99.99,,,-99.99,WSDL version 430,2013-07-27 14:14:00,
2013-07-27 09:19:00,67.5,61.3,30.12,East,85,1.3,3.6,81,-99.99,,,-99.99,WSDL version 430,2013-07-27 14:19:00,
2013-07-27 09:24:00,67.7,61.3,30.12,NNE,25,0.5,3.6,80,-99.99,,,-99.99,WSDL version 430,2013-07-27 14:24:00,
2013-07-27 09:29:00,67.9,61.4,30.12,NE,43,2.6,4.3,80,-99.99,,,-99.99,WSDL version 430,2013-07-27 14:29:00,
2013-07-27 09:34:00,68.1,60.9,30.12,North,8,4.0,6.0,78,-99.99,,,-99.99,WSDL version 430,2013-07-27 14:34:00,
2013-07-27 09:39:00,68.3,60.8,30.12,NE,54,0.6,6.0,77,-99.99,,,-99.99,WSDL version 430,2013-07-27 14:39:00,
2013-07-27 09:44:00,68.6,61.2,30.12,North,6,3.3,5.6,77,-99.99,,,-99.99,WSDL version 430,2013-07-27 14:44:00,
2013-07-27 09:49:00,68.9,60.9,30.12,North,353,3.6,7.2,76,-99.99,,,-99.99,WSDL version 430,2013-07-27 14:49:00,
2013-07-27 09:54:00,69.2,60.5,30.12,North,6,4.6,8.1,74,-99.99,,,-99.99,WSDL version 430,2013-07-27 14:54:00,
2013-07-27 09:59:00,69.4,59.9,30.12,North,360,3.0,8.1,72,-99.99,,,-99.99,WSDL version 430,2013-07-27 14:59:00,
2013-07-27 10:04:00,69.6,59.7,30.12,NNW,333,2.9,8.1,71,-99.99,,,-99.99,WSDL version 430,2013-07-27 15:04:00,
2013-07-27 10:09:00,69.8,59.8,30.09,NNW,338,3.9,10.5,71,-99.99,,,-99.99,WSDL version 430,2013-07-27 15:09:00,
2013-07-27 10:14:00,69.9,59.2,30.09,NNE,27,4.0,10.5,69,-99.99,,,-99.99,WSDL version 430,2013-07-27 15:14:00,
2013-07-27 10:19:00,70.0,59.2,30.09,NNE,23,4.2,8.1,69,-99.99,,,-99.99,WSDL version 430,2013-07-27 15:19:00,
2013-07-27 10:24:00,70.3,58.9,30.09,NE,36,4.2,8.5,67,-99.99,,,-99.99,WSDL version 430,2013-07-27 15:24:00,
2013-07-27 10:29:00,70.7,59.2,30.09,NNW,328,3.8,8.5,67,-99.99,,,-99.99,WSDL version 430,2013-07-27 15:29:00,
2013-07-27 10:34:00,70.6,58.7,30.09,NE,50,4.2,7.6,66,-99.99,,,-99.99,WSDL version 430,2013-07-27 15:34:00,
2013-07-27 10:39:00,70.9,58.7,30.12,NNE,29,3.4,7.6,65,-99.99,,,-99.99,WSDL version 430,2013-07-27 15:39:00,
2013-07-27 10:44:00,70.9,58.6,30.12,NNW,345,2.2,7.2,65,-99.99,,,-99.99,WSDL version 430,2013-07-27 15:44:00,
2013-07-27 10:49:00,71.0,58.7,30.12,NNE,29,2.0,6.0,65,-99.99,,,-99.99,WSDL version 430,2013-07-27 15:49:00,
2013-07-27 10:54:00,71.2,59.1,30.12,NNE,25,3.3,6.0,66,-99.99,,,-99.99,WSDL version 430,2013-07-27 15:54:00,
2013-07-27 10:59:00,71.4,58.9,30.12,NNE,17,4.1,6.0,65,-99.99,,,-99.99,WSDL version 430,2013-07-27 15:59:00,
2013-07-27 11:04:00,71.5,58.7,30.12,North,350,3.7,7.6,64,-99.99,,,-99.99,WSDL version 430,2013-07-27 16:04:00,
2013-07-27 11:09:00,71.6,57.8,30.09,NNE,25,4.4,7.6,62,-99.99,,,-99.99,WSDL version 430,2013-07-27 16:09:00,
2013-07-27 11:14:00,71.9,57.9,30.09,NE,56,4.3,7.4,61,-99.99,,,-99.99,WSDL version 430,2013-07-27 16:14:00,
2013-07-27 11:19:00,72.4,58.6,30.09,ENE,72,3.5,6.5,62,-99.99,,,-99.99,WSDL version 430,2013-07-27 16:19:00,
2013-07-27 11:24:00,72.2,58.0,30.12,East,84,1.9,6.0,61,-99.99,,,-99.99,WSDL version 430,2013-07-27 16:24:00,
2013-07-27 11:29:00,72.2,58.2,30.12,WNW,303,3.6,6.0,61,-99.99,,,-99.99,WSDL version 430,2013-07-27 16:29:00,
2013-07-27 11:34:00,72.7,58.0,30.12,SSE,158,3.3,7.8,60,-99.99,,,-99.99,WSDL version 430,2013-07-27 16:34:00,
2013-07-27 11:39:00,73.0,57.3,30.12,NW,311,5.6,7.8,58,-99.99,,,-99.99,WSDL version 430,2013-07-27 16:39:00,
2013-07-27 11:44:00,72.9,56.5,30.12,North,2,4.1,8.5,56,-99.99,,,-99.99,WSDL version 430,2013-07-27 16:44:00,
2013-07-27 11:49:00,73.2,57.0,30.12,NW,306,4.7,8.5,57,-99.99,,,-99.99,WSDL version 430,2013-07-27 16:49:00,
2013-07-27 11:54:00,73.2,57.2,30.09,NE,48,4.7,7.6,57,-99.99,,,-99.99,WSDL version 430,2013-07-27 16:54:00,
2013-07-27 11:59:00,73.4,56.9,30.09,NNE,18,3.5,7.6,56,-99.99,,,-99.99,WSDL version 430,2013-07-27 16:59:00,
2013-07-27 12:04:00,73.5,56.5,30.09,WNW,288,3.3,7.4,55,-99.99,,,-99.99,WSDL version 430,2013-07-27 17:04:00,
2013-07-27 12:09:00,73.3,55.8,30.12,NW,321,4.2,6.0,54,-99.99,,,-99.99,WSDL version 430,2013-07-27 17:09:00,
2013-07-27 12:14:00,73.2,55.4,30.12,North,352,4.6,6.5,54,-99.99,,,-99.99,WSDL version 430,2013-07-27 17:14:00,
2013-07-27 12:19:00,73.0,55.3,30.12,West,277,3.5,6.5,54,-99.99,,,-99.99,WSDL version 430,2013-07-27 17:19:00,
2013-07-27 12:24:00,73.2,55.5,30.12,NW,307,3.4,6.5,54,-99.99,,,-99.99,WSDL version 430,2013-07-27 17:24:00,
2013-07-27 12:29:00,73.5,55.5,30.12,NW,323,5.2,7.6,53,-99.99,,,-99.99,WSDL version 430,2013-07-27 17:29:00,
2013-07-27 12:34:00,73.8,55.8,30.12,NW,324,3.6,7.6,54,-99.99,,,-99.99,WSDL version 430,2013-07-27 17:34:00,
2013-07-27 12:39:00,73.7,55.4,30.12,North,349,3.8,7.4,53,-99.99,,,-99.99,WSDL version 430,2013-07-27 17:39:00,
2013-07-27 12:44:00,73.7,55.4,30.12,North,360,1.7,7.4,53,-99.99,,,-99.99,WSDL version 430,2013-07-27 17:44:00,
2013-07-27 12:49:00,73.4,55.0,30.12,NW,325,3.3,5.6,53,-99.99,,,-99.99,WSDL version 430,2013-07-27 17:49:00,
2013-07-27 12:54:00,73.3,54.6,30.12,NNW,345,3.7,5.6,52,-99.99,,,-99.99,WSDL version 430,2013-07-27 17:54:00,
2013-07-27 13:04:00,73.3,53.8,30.12,North,2,5.2,8.1,51,-99.99,,,-99.99,WSDL version 430,2013-07-27 18:04:00,
2013-07-27 13:09:00,73.3,53.5,30.12,NNW,333,2.5,8.5,50,-99.99,,,-99.99,WSDL version 430,2013-07-27 18:09:00,
2013-07-27 13:14:00,73.5,53.8,30.12,SSW,205,2.4,8.5,50,-99.99,,,-99.99,WSDL version 430,2013-07-27 18:14:00,
2013-07-27 13:19:00,73.7,53.7,30.12,North,2,3.0,6.0,50,-99.99,,,-99.99,WSDL version 430,2013-07-27 18:19:00,
2013-07-27 13:24:00,73.4,52.8,30.12,East,81,2.3,6.9,48,-99.99,,,-99.99,WSDL version 430,2013-07-27 18:24:00,
2013-07-27 13:29:00,73.4,53.3,30.12,NNW,344,2.2,6.9,49,-99.99,,,-99.99,WSDL version 430,2013-07-27 18:29:00,
2013-07-27 13:34:00,73.3,52.4,30.12,NW,317,3.6,7.4,48,-99.99,,,-99.99,WSDL version 430,2013-07-27 18:34:00,
2013-07-27 13:39:00,73.0,52.4,30.12,West,270,3.8,7.4,49,-99.99,,,-99.99,WSDL version 430,2013-07-27 18:39:00,
2013-07-27 13:44:00,73.5,52.7,30.12,SW,227,3.2,6.3,48,-99.99,,,-99.99,WSDL version 430,2013-07-27 18:44:00,
2013-07-27 13:49:00,74.0,53.2,30.12,West,275,3.5,8.5,48,-99.99,,,-99.99,WSDL version 430,2013-07-27 18:49:00,
2013-07-27 13:54:00,74.4,53.4,30.09,NW,321,5.4,8.5,48,-99.99,,,-99.99,WSDL version 430,2013-07-27 18:54:00,
2013-07-27 13:59:00,74.7,52.8,30.09,NNW,331,3.7,7.2,46,-99.99,,,-99.99,WSDL version 430,2013-07-27 18:59:00,
2013-07-27 14:04:00,74.8,52.9,30.09,NNW,335,3.7,7.2,47,-99.99,,,-99.99,WSDL version 430,2013-07-27 19:04:00,
2013-07-27 14:09:00,74.9,52.7,30.09,NNW,335,2.8,5.8,46,-99.99,,,-99.99,WSDL version 430,2013-07-27 19:09:00,
2013-07-27 14:14:00,75.5,53.1,30.09,NNW,340,2.8,5.8,46,-99.99,,,-99.99,WSDL version 430,2013-07-27 19:14:00,
2013-07-27 14:19:00,75.6,53.2,30.09,NNW,338,4.7,7.8,46,-99.99,,,-99.99,WSDL version 430,2013-07-27 19:19:00,
2013-07-27 14:24:00,76.2,52.8,30.09,SSW,203,3.7,7.8,44,-99.99,,,-99.99,WSDL version 430,2013-07-27 19:24:00,
2013-07-27 14:29:00,76.0,52.8,30.09,ENE,71,2.9,7.6,44,-99.99,,,-99.99,WSDL version 430,2013-07-27 19:29:00,
2013-07-27 14:34:00,76.3,53.3,30.09,ENE,68,3.7,7.6,45,-99.99,,,-99.99,WSDL version 430,2013-07-27 19:34:00,
2013-07-27 14:39:00,76.3,52.2,30.06,NNW,332,4.4,7.4,43,-99.99,,,-99.99,WSDL version 430,2013-07-27 19:39:00,
2013-07-27 14:44:00,76.3,52.3,30.06,West,272,3.0,7.4,43,-99.99,,,-99.99,WSDL version 430,2013-07-27 19:44:00,
2013-07-27 14:49:00,76.9,52.9,30.06,ENE,61,2.8,8.5,43,-99.99,,,-99.99,WSDL version 430,2013-07-27 19:49:00,
2013-07-27 14:54:00,77.3,52.5,30.06,NNE,18,3.7,8.7,42,-99.99,,,-99.99,WSDL version 430,2013-07-27 19:54:00,
2013-07-27 14:59:00,77.2,52.7,30.06,NNW,338,2.6,8.7,43,-99.99,,,-99.99,WSDL version 430,2013-07-27 19:59:00,
2013-07-27 15:04:00,77.1,52.1,30.06,NW,326,3.9,6.5,42,-99.99,,,-99.99,WSDL version 430,2013-07-27 20:04:00,
2013-07-27 15:09:00,77.3,52.6,30.06,NNE,21,4.4,7.6,42,-99.99,,,-99.99,WSDL version 430,2013-07-27 20:09:00,
2013-07-27 15:19:00,77.1,52.5,30.06,West,275,5.0,7.8,42,-99.99,,,-99.99,WSDL version 430,2013-07-27 20:19:00,
2013-07-27 15:24:00,76.9,52.0,30.06,SW,236,1.9,7.8,42,-99.99,,,-99.99,WSDL version 430,2013-07-27 20:24:00,
2013-07-27 15:29:00,76.7,52.7,30.06,West,279,3.3,6.3,43,-99.99,,,-99.99,WSDL version 430,2013-07-27 20:29:00,
2013-07-27 15:34:00,76.9,52.4,30.06,West,270,3.4,7.4,43,-99.99,,,-99.99,WSDL version 430,2013-07-27 20:34:00,
2013-07-27 15:39:00,76.6,52.1,30.06,West,279,5.3,7.8,42,-99.99,,,-99.99,WSDL version 430,2013-07-27 20:39:00,
2013-07-27 15:44:00,76.5,51.9,30.06,NW,320,4.0,7.8,42,-99.99,,,-99.99,WSDL version 430,2013-07-27 20:44:00,
2013-07-27 15:49:00,76.5,51.7,30.06,South,186,2.4,6.5,42,-99.99,,,-99.99,WSDL version 430,2013-07-27 20:49:00,
2013-07-27 15:54:00,76.3,51.5,30.06,WNW,288,5.0,8.5,42,-99.99,,,-99.99,WSDL version 430,2013-07-27 20:54:00,
2013-07-27 15:59:00,76.1,51.5,30.06,NNW,327,1.0,8.5,42,-99.99,,,-99.99,WSDL version 430,2013-07-27 20:59:00,
2013-07-27 16:04:00,76.3,51.6,30.06,NW,308,3.3,6.3,42,-99.99,,,-99.99,WSDL version 430,2013-07-27 21:04:00,
2013-07-27 16:09:00,76.3,51.7,30.06,NNW,330,4.0,6.3,42,-99.99,,,-99.99,WSDL version 430,2013-07-27 21:09:00,
2013-07-27 16:14:00,76.2,51.4,30.06,NNW,344,3.7,8.1,42,-99.99,,,-99.99,WSDL version 430,2013-07-27 21:14:00,
2013-07-27 16:19:00,76.3,51.4,30.06,North,358,4.2,8.1,42,-99.99,,,-99.99,WSDL version 430,2013-07-27 21:19:00,
2013-07-27 16:24:00,76.6,51.5,30.06,NW,311,5.7,8.7,42,-99.99,,,-99.99,WSDL version 430,2013-07-27 21:24:00,
2013-07-27 16:29:00,76.3,51.2,30.06,NNW,340,3.1,8.7,42,-99.99,,,-99.99,WSDL version 430,2013-07-27 21:29:00,
2013-07-27 16:34:00,76.2,51.6,30.06,NW,315,5.3,8.7,42,-99.99,,,-99.99,WSDL version 430,2013-07-27 21:34:00,
2013-07-27 16:39:00,76.6,51.9,30.06,NNW,340,3.4,8.7,42,-99.99,,,-99.99,WSDL version 430,2013-07-27 21:39:00,
2013-07-27 16:44:00,76.8,52.6,30.06,NNW,329,3.5,7.4,43,-99.99,,,-99.99,WSDL version 430,2013-07-27 21:44:00,
2013-07-27 16:49:00,76.7,52.6,30.06,North,354,4.8,7.4,43,-99.99,,,-99.99,WSDL version 430,2013-07-27 21:49:00,
2013-07-27 16:54:00,76.8,52.1,30.06,NW,307,4.0,7.4,42,-99.99,,,-99.99,WSDL version 430,2013-07-27 21:54:00,
2013-07-27 16:59:00,76.7,51.9,30.06,North,353,3.8,6.9,42,-99.99,,,-99.99,WSDL version 430,2013-07-27 21:59:00,
2013-07-27 17:04:00,76.9,52.1,30.06,WNW,303,1.6,5.6,42,-99.99,,,-99.99,WSDL version 430,2013-07-27 22:04:00,
2013-07-27 17:09:00,77.4,52.1,30.06,NNW,347,2.8,6.3,41,-99.99,,,-99.99,WSDL version 430,2013-07-27 22:09:00,
2013-07-27 17:14:00,77.3,51.9,30.06,SSE,160,1.7,6.3,41,-99.99,,,-99.99,WSDL version 430,2013-07-27 22:14:00,
2013-07-27 17:19:00,77.3,51.8,30.06,NNW,333,2.9,6.3,41,-99.99,,,-99.99,WSDL version 430,2013-07-27 22:19:00,
2013-07-27 17:24:00,77.3,51.4,30.06,NW,313,4.9,7.6,40,-99.99,,,-99.99,WSDL version 430,2013-07-27 22:24:00,
2013-07-27 17:29:00,77.2,51.3,30.06,West,281,3.5,7.6,40,-99.99,,,-99.99,WSDL version 430,2013-07-27 22:29:00,
2013-07-27 17:34:00,77.6,51.7,30.06,NW,317,3.5,7.2,41,-99.99,,,-99.99,WSDL version 430,2013-07-27 22:34:00,
2013-07-27 17:39:00,77.8,52.0,30.06,SW,225,2.0,5.6,41,-99.99,,,-99.99,WSDL version 430,2013-07-27 22:39:00,
2013-07-27 17:49:00,78.4,52.3,30.06,NW,311,4.4,6.3,40,-99.99,,,-99.99,WSDL version 430,2013-07-27 22:49:00,
2013-07-27 17:54:00,78.0,51.6,30.06,WSW,256,3.5,8.1,40,-99.99,,,-99.99,WSDL version 430,2013-07-27 22:54:00,
2013-07-27 17:59:00,78.0,51.5,30.06,WNW,299,2.6,8.1,40,-99.99,,,-99.99,WSDL version 430,2013-07-27 22:59:00,
2013-07-27 18:04:00,77.9,51.8,30.06,NNW,328,3.3,5.6,40,-99.99,,,-99.99,WSDL version 430,2013-07-27 23:04:00,
2013-07-27 18:09:00,77.5,51.4,30.06,NNW,344,1.5,4.7,40,-99.99,,,-99.99,WSDL version 430,2013-07-27 23:09:00,
2013-07-27 18:14:00,77.6,52.1,30.06,NE,53,2.5,5.4,41,-99.99,,,-99.99,WSDL version 430,2013-07-27 23:14:00,
2013-07-27 18:19:00,77.5,51.9,30.06,WNW,302,1.9,5.4,41,-99.99,,,-99.99,WSDL version 430,2013-07-27 23:19:00,
2013-07-27 18:24:00,77.3,52.1,30.06,WNW,290,3.2,4.7,42,-99.99,,,-99.99,WSDL version 430,2013-07-27 23:24:00,
2013-07-27 18:29:00,77.2,52.0,30.06,North,352,2.1,4.7,42,-99.99,,,-99.99,WSDL version 430,2013-07-27 23:29:00,
2013-07-27 18:34:00,76.5,51.7,30.06,NE,52,1.5,4.0,42,-99.99,,,-99.99,WSDL version 430,2013-07-27 23:34:00,
2013-07-27 18:44:00,76.1,52.0,30.06,NNW,346,2.6,6.0,43,-99.99,,,-99.99,WSDL version 430,2013-07-27 23:44:00,
2013-07-27 18:49:00,76.0,52.2,30.06,NNE,27,1.6,3.6,44,-99.99,,,-99.99,WSDL version 430,2013-07-27 23:49:00,
2013-07-27 18:54:00,75.7,52.3,30.06,NNW,329,2.8,4.9,44,-99.99,,,-99.99,WSDL version 430,2013-07-27 23:54:00,
2013-07-27 18:59:00,75.5,51.5,30.06,WNW,297,2.6,5.4,43,-99.99,,,-99.99,WSDL version 430,2013-07-27 23:59:00,
2013-07-27 19:04:00,75.1,51.5,30.06,NNW,331,3.2,5.4,44,-99.99,,,-99.99,WSDL version 430,2013-07-28 00:04:00,
2013-07-27 19:09:00,74.9,51.6,30.06,NNW,344,3.1,6.3,44,-99.99,,,-99.99,WSDL version 430,2013-07-28 00:09:00,
2013-07-27 19:14:00,74.6,51.4,30.06,NW,305,1.8,6.3,44,-99.99,,,-99.99,WSDL version 430,2013-07-28 00:14:00,
2013-07-27 19:19:00,74.6,52.1,30.06,ENE,68,0.8,4.3,45,-99.99,,,-99.99,WSDL version 430,2013-07-28 00:19:00,
2013-07-27 19:29:00,74.4,52.5,30.06,West,264,0.1,2.9,46,-99.99,,,-99.99,WSDL version 430,2013-07-28 00:29:00,
2013-07-27 19:34:00,74.5,53.6,30.06,WSW,248,0.0,2.0,48,-99.99,,,-99.99,WSDL version 430,2013-07-28 00:34:00,
2013-07-27 19:39:00,74.4,54.1,30.06,WSW,254,0.8,1.6,49,-99.99,,,-99.99,WSDL version 430,2013-07-28 00:39:00,
2013-07-27 19:44:00,74.2,53.8,30.06,WNW,293,2.2,3.1,49,-99.99,,,-99.99,WSDL version 430,2013-07-28 00:44:00,
2013-07-27 19:49:00,74.3,53.5,30.06,NW,309,0.0,3.8,48,-99.99,,,-99.99,WSDL version 430,2013-07-28 00:49:00,
2013-07-27 19:54:00,73.9,53.0,30.06,SW,228,1.9,3.8,48,-99.99,,,-99.99,WSDL version 430,2013-07-28 00:54:00,
2013-07-27 19:59:00,74.2,53.5,30.06,West,261,0.8,2.7,49,-99.99,,,-99.99,WSDL version 430,2013-07-28 00:59:00,
2013-07-27 20:04:00,74.6,53.9,30.06,West,270,0.1,2.7,49,-99.99,,,-99.99,WSDL version 430,2013-07-28 01:04:00,
2013-07-27 20:09:00,74.1,53.4,30.06,West,263,1.8,3.4,49,-99.99,,,-99.99,WSDL version 430,2013-07-28 01:09:00,
2013-07-27 20:14:00,74.4,53.8,30.06,West,270,0.0,3.4,49,-99.99,,,-99.99,WSDL version 430,2013-07-28 01:14:00,
2013-07-27 20:19:00,73.9,53.3,30.06,West,270,0.0,1.3,48,-99.99,,,-99.99,WSDL version 430,2013-07-28 01:19:00,
2013-07-27 20:24:00,73.3,53.2,30.03,West,270,1.1,2.7,49,-99.99,,,-99.99,WSDL version 430,2013-07-28 01:24:00,
2013-07-27 20:29:00,73.0,53.7,30.03,West,270,0.6,2.7,51,-99.99,,,-99.99,WSDL version 430,2013-07-28 01:29:00,
2013-07-27 20:34:00,72.6,53.3,30.03,West,270,0.6,2.5,51,-99.99,,,-99.99,WSDL version 430,2013-07-28 01:34:00,
2013-07-27 20:39:00,72.4,54.0,30.06,West,270,0.0,2.5,52,-99.99,,,-99.99,WSDL version 430,2013-07-28 01:39:00,
2013-07-27 20:44:00,72.1,53.9,30.06,West,270,0.0,0.0,53,-99.99,,,-99.99,WSDL version 430,2013-07-28 01:44:00,
2013-07-27 20:49:00,71.5,53.7,30.06,West,270,0.5,2.0,53,-99.99,,,-99.99,WSDL version 430,2013-07-28 01:49:00,
2013-07-27 20:54:00,71.3,54.6,30.06,West,270,0.0,2.0,56,-99.99,,,-99.99,WSDL version 430,2013-07-28 01:54:00,
2013-07-27 20:59:00,70.7,54.9,30.06,West,270,0.0,1.6,57,-99.99,,,-99.99,WSDL version 430,2013-07-28 01:59:00,
2013-07-27 21:04:00,70.2,54.7,30.06,West,270,0.0,0.0,58,-99.99,,,-99.99,WSDL version 430,2013-07-28 02:04:00,
2013-07-27 21:09:00,69.8,54.9,30.06,West,270,0.0,0.0,59,-99.99,,,-99.99,WSDL version 430,2013-07-28 02:09:00,
2013-07-27 21:14:00,69.6,55.5,30.06,West,270,0.0,0.0,61,-99.99,,,-99.99,WSDL version 430,2013-07-28 02:14:00,
2013-07-27 21:19:00,69.7,55.9,30.06,West,270,0.0,0.0,61,-99.99,,,-99.99,WSDL version 430,2013-07-28 02:19:00,
2013-07-27 21:24:00,69.3,55.8,30.06,West,270,0.0,0.0,62,-99.99,,,-99.99,WSDL version 430,2013-07-28 02:24:00,
2013-07-27 21:29:00,68.9,55.9,30.06,West,270,0.0,0.0,63,-99.99,,,-99.99,WSDL version 430,2013-07-28 02:29:00,
2013-07-27 21:34:00,68.8,56.2,30.06,West,270,0.0,0.0,64,-99.99,,,-99.99,WSDL version 430,2013-07-28 02:34:00,
2013-07-27 21:39:00,68.8,56.5,30.06,West,270,0.0,0.0,65,-99.99,,,-99.99,WSDL version 430,2013-07-28 02:39:00,
2013-07-27 21:44:00,68.3,56.1,30.06,West,270,0.0,0.0,65,-99.99,,,-99.99,WSDL version 430,2013-07-28 02:44:00,
2013-07-27 21:49:00,67.9,56.2,30.06,West,270,0.0,0.0,66,-99.99,,,-99.99,WSDL version 430,2013-07-28 02:49:00,
2013-07-27 21:54:00,67.6,56.2,30.03,West,270,0.0,0.0,67,-99.99,,,-99.99,WSDL version 430,2013-07-28 02:54:00,
2013-07-27 21:59:00,67.4,56.5,30.03,West,270,0.0,0.0,68,-99.99,,,-99.99,WSDL version 430,2013-07-28 02:59:00,
2013-07-27 22:04:00,67.2,56.3,30.03,West,270,0.0,1.3,68,-99.99,,,-99.99,WSDL version 430,2013-07-28 03:04:00,
2013-07-27 22:09:00,67.0,56.4,30.06,West,270,0.0,1.3,69,-99.99,,,-99.99,WSDL version 430,2013-07-28 03:09:00,
2013-07-27 22:14:00,67.3,57.0,30.06,West,270,0.0,1.3,70,-99.99,,,-99.99,WSDL version 430,2013-07-28 03:14:00,
2013-07-27 22:19:00,67.3,57.2,30.06,West,270,0.0,0.0,70,-99.99,,,-99.99,WSDL version 430,2013-07-28 03:19:00,
2013-07-27 22:24:00,67.0,56.7,30.06,West,270,0.3,1.3,70,-99.99,,,-99.99,WSDL version 430,2013-07-28 03:24:00,
2013-07-27 22:29:00,66.7,56.6,30.06,West,270,0.0,1.3,70,-99.99,,,-99.99,WSDL version 430,2013-07-28 03:29:00,
2013-07-27 22:34:00,66.6,56.7,30.06,West,270,0.0,0.0,70,-99.99,,,-99.99,WSDL version 430,2013-07-28 03:34:00,
2013-07-27 22:39:00,66.7,57.0,30.06,West,270,0.0,0.0,71,-99.99,,,-99.99,WSDL version 430,2013-07-28 03:39:00,
2013-07-27 22:44:00,66.5,56.8,30.06,West,270,0.0,0.0,71,-99.99,,,-99.99,WSDL version 430,2013-07-28 03:44:00,
2013-07-27 22:49:00,66.2,56.7,30.06,West,270,0.0,0.0,71,-99.99,,,-99.99,WSDL version 430,2013-07-28 03:49:00,
2013-07-27 22:54:00,66.3,56.9,30.06,West,270,0.0,0.0,72,-99.99,,,-99.99,WSDL version 430,2013-07-28 03:54:00,
2013-07-27 22:59:00,66.5,57.2,30.06,West,270,0.0,0.0,72,-99.99,,,-99.99,WSDL version 430,2013-07-28 03:59:00,
2013-07-27 23:04:00,66.2,57.0,30.06,West,270,0.0,0.0,72,-99.99,,,-99.99,WSDL version 430,2013-07-28 04:04:00,
2013-07-27 23:09:00,65.9,57.0,30.09,West,270,0.0,0.0,73,-99.99,,,-99.99,WSDL version 430,2013-07-28 04:09:00,
2013-07-27 23:14:00,66.0,57.3,30.09,West,270,0.0,0.0,74,-99.99,,,-99.99,WSDL version 430,2013-07-28 04:14:00,
2013-07-27 23:19:00,66.2,57.6,30.09,West,270,0.0,0.0,74,-99.99,,,-99.99,WSDL version 430,2013-07-28 04:19:00,
2013-07-27 23:24:00,65.9,57.4,30.06,West,270,0.0,0.0,74,-99.99,,,-99.99,WSDL version 430,2013-07-28 04:24:00,
2013-07-27 23:29:00,65.6,57.5,30.06,West,270,0.0,0.0,75,-99.99,,,-99.99,WSDL version 430,2013-07-28 04:29:00,
2013-07-27 23:34:00,65.4,57.3,30.06,West,270,0.0,0.0,75,-99.99,,,-99.99,WSDL version 430,2013-07-28 04:34:00,
2013-07-27 23:39:00,65.2,57.4,30.06,West,270,0.0,0.0,76,-99.99,,,-99.99,WSDL version 430,2013-07-28 04:39:00,
2013-07-27 23:44:00,65.1,57.4,30.06,West,270,0.0,0.0,76,-99.99,,,-99.99,WSDL version 430,2013-07-28 04:44:00,
2013-07-27 23:49:00,65.3,57.7,30.06,West,270,0.0,0.0,76,-99.99,,,-99.99,WSDL version 430,2013-07-28 04:49:00,
2013-07-27 23:54:00,65.5,58.1,30.06,West,270,0.0,0.0,77,-99.99,,,-99.99,WSDL version 430,2013-07-28 04:54:00,
2013-07-27 23:59:00,65.2,57.8,30.06,West,270,0.0,0.0,77,-99.99,,,-99.99,WSDL version 430,2013-07-28 04:59:00,